Time;durP1;ratioP1;P1;durP2;ratioP2;P2;SDS_P1;SDS_P2;PMS_P1;PMS_P2;Temp;Humidity;BMP_temperature;BMP_pressure;BME280_temperature;BME280_humidity;BME280_pressure;Samples;Min_cycle;Max_cycle;Signal;HPM_P1;HPM_P2
2023/01/26 00:01:52;;;;;;;45.10;19.07;;;0.00;99.90;;;;;;5058764;28;20206;-63
2023/01/26 00:04:19;;;;;;;43.73;19.40;;;0.00;99.90;;;;;;5074475;28;20207;-63
2023/01/26 00:06:47;;;;;;;40.87;17.87;;;0.00;99.90;;;;;;5058613;28;20211;-64
2023/01/26 00:09:14;;;;;;;44.90;20.20;;;0.00;99.90;;;;;;5052059;28;21089;-64
2023/01/26 00:11:42;;;;;;;45.27;19.33;;;0.00;99.90;;;;;;5078950;28;20221;-64
2023/01/26 00:14:09;;;;;;;41.23;19.40;;;0.00;99.90;;;;;;5061253;28;20849;-63
2023/01/26 00:16:36;;;;;;;45.73;18.90;;;0.00;99.90;;;;;;5068964;28;20202;-63
2023/01/26 00:19:03;;;;;;;41.87;18.93;;;0.00;99.90;;;;;;5061795;27;20211;-63
2023/01/26 00:21:30;;;;;;;41.93;19.43;;;0.10;99.90;;;;;;5066027;27;20586;-63
2023/01/26 00:23:59;;;;;;;41.83;19.80;;;0.00;99.90;;;;;;5049086;27;20237;-63
2023/01/26 00:26:27;;;;;;;42.33;18.77;;;0.00;99.90;;;;;;5084409;27;20274;-63
2023/01/26 00:28:54;;;;;;;43.80;19.20;;;0.00;99.90;;;;;;5068385;27;20219;-63
2023/01/26 00:31:23;;;;;;;45.87;18.73;;;0.00;99.90;;;;;;5043982;27;20226;-63
2023/01/26 00:33:49;;;;;;;42.20;18.87;;;0.00;99.90;;;;;;5072483;27;20240;-64
2023/01/26 00:36:16;;;;;;;41.07;18.53;;;0.00;99.90;;;;;;5079940;27;20204;-63
2023/01/26 00:38:44;;;;;;;41.17;18.60;;;0.00;99.90;;;;;;5054469;27;20209;-64
2023/01/26 00:42:05;;;;;;;46.70;19.47;;;0.20;99.90;;;;;;5050782;27;20234;-63
2023/01/26 00:43:59;;;;;;;41.23;18.73;;;0.00;99.90;;;;;;5031214;28;20291;-64
2023/01/26 00:46:26;;;;;;;43.37;18.47;;;0.10;99.90;;;;;;5070593;27;20214;-63
2023/01/26 00:48:53;;;;;;;42.03;17.70;;;0.00;99.90;;;;;;5077787;27;20206;-64
2023/01/26 00:51:20;;;;;;;40.87;18.53;;;0.00;99.90;;;;;;5074522;27;20805;-64
2023/01/26 00:53:47;;;;;;;38.97;18.17;;;0.00;99.90;;;;;;5052182;27;20226;-63
2023/01/26 00:56:15;;;;;;;42.27;18.50;;;0.10;99.90;;;;;;5054207;27;20237;-64
2023/01/26 00:58:43;;;;;;;36.90;17.83;;;0.00;99.90;;;;;;5054016;27;20199;-64
2023/01/26 01:01:10;;;;;;;37.23;17.37;;;0.00;99.90;;;;;;5045853;27;20202;-64
2023/01/26 01:03:37;;;;;;;40.13;18.00;;;0.10;99.90;;;;;;5063550;27;20205;-64
2023/01/26 01:06:04;;;;;;;37.10;16.87;;;0.00;99.90;;;;;;5085537;27;20209;-64
2023/01/26 01:08:30;;;;;;;41.27;17.83;;;0.10;99.90;;;;;;5064507;27;20208;-64
2023/01/26 01:11:04;;;;;;;35.47;15.43;;;0.10;99.90;;;;;;5055080;27;20211;-63
2023/01/26 01:13:33;;;;;;;38.57;17.43;;;0.10;99.90;;;;;;5080758;27;20225;-64
2023/01/26 01:15:59;;;;;;;34.23;15.17;;;0.10;99.90;;;;;;5065139;27;20241;-64
2023/01/26 01:18:26;;;;;;;38.93;16.13;;;0.10;99.90;;;;;;5053754;27;20953;-64
2023/01/26 01:20:53;;;;;;;38.40;16.77;;;0.70;99.90;;;;;;5067470;27;20212;-64
2023/01/26 01:23:20;;;;;;;35.57;16.27;;;0.10;99.90;;;;;;5054596;27;23728;-63
2023/01/26 01:25:47;;;;;;;35.23;15.07;;;0.10;99.90;;;;;;5026561;27;20203;-64
2023/01/26 01:28:14;;;;;;;31.77;14.43;;;0.10;99.90;;;;;;5073580;27;20207;-64
2023/01/26 01:30:42;;;;;;;30.67;15.67;;;0.10;99.90;;;;;;5064652;28;20224;-64
2023/01/26 01:33:09;;;;;;;35.60;15.03;;;0.10;99.90;;;;;;5068532;27;20342;-64
2023/01/26 01:35:36;;;;;;;34.20;16.17;;;0.10;99.90;;;;;;5068125;27;20209;-64
2023/01/26 01:38:03;;;;;;;38.40;14.50;;;0.10;99.90;;;;;;5070871;27;20199;-64
2023/01/26 01:40:30;;;;;;;33.70;15.40;;;0.10;99.90;;;;;;5063079;27;20230;-64
2023/01/26 01:42:56;;;;;;;32.90;15.00;;;0.20;99.90;;;;;;5042374;27;20849;-64
2023/01/26 01:45:44;;;;;;;38.57;17.17;;;0.20;99.90;;;;;;5055450;27;20242;-64
2023/01/26 01:48:20;;;;;;;34.53;15.00;;;0.10;99.90;;;;;;5067217;27;20211;-64
2023/01/26 01:50:48;;;;;;;31.83;14.40;;;0.20;99.90;;;;;;5063229;27;20797;-65
2023/01/26 01:53:23;;;;;;;34.17;14.83;;;0.20;99.90;;;;;;5079829;27;20220;-64
2023/01/26 01:55:52;;;;;;;34.63;16.07;;;0.20;99.90;;;;;;5060471;27;20206;-64
2023/01/26 01:58:19;;;;;;;35.13;14.07;;;0.20;99.90;;;;;;5038460;27;20203;-64
2023/01/26 02:00:47;;;;;;;34.73;16.03;;;0.30;99.90;;;;;;5042429;27;20210;-64
2023/01/26 02:03:17;;;;;;;35.10;14.73;;;0.20;99.90;;;;;;5066158;27;20205;-65
2023/01/26 02:05:54;;;;;;;32.60;14.33;;;0.20;99.90;;;;;;5060320;27;20197;-65
2023/01/26 02:08:24;;;;;;;33.00;14.53;;;0.20;99.90;;;;;;5071305;27;20202;-64
2023/01/26 02:10:54;;;;;;;35.03;16.57;;;0.20;99.90;;;;;;5077710;27;20686;-64
2023/01/26 02:13:22;;;;;;;29.50;13.30;;;0.20;99.90;;;;;;4993551;28;20367;-65
2023/01/26 02:15:51;;;;;;;30.57;14.40;;;0.20;99.90;;;;;;5063148;27;20210;-65
2023/01/26 02:18:18;;;;;;;32.77;15.77;;;0.20;99.90;;;;;;5065609;27;20210;-65
2023/01/26 02:20:47;;;;;;;32.27;14.53;;;0.20;99.90;;;;;;5067740;27;20211;-64
2023/01/26 02:23:32;;;;;;;30.83;13.87;;;0.20;99.90;;;;;;5070969;28;20213;-65
2023/01/26 02:26:10;;;;;;;31.17;13.77;;;0.20;99.90;;;;;;5076882;27;20229;-65
2023/01/26 02:28:37;;;;;;;30.10;13.47;;;0.30;99.90;;;;;;5047314;27;20392;-65
2023/01/26 02:31:05;;;;;;;29.67;13.00;;;0.30;99.90;;;;;;5064545;27;20211;-64
2023/01/26 02:33:33;;;;;;;26.77;13.47;;;0.30;99.90;;;;;;5064130;27;20230;-65
2023/01/26 02:36:01;;;;;;;28.93;12.80;;;0.30;99.90;;;;;;5068702;27;20695;-64
2023/01/26 02:38:33;;;;;;;25.47;12.83;;;0.30;99.90;;;;;;5067873;27;20640;-65
2023/01/26 02:41:04;;;;;;;25.40;12.90;;;0.30;99.90;;;;;;5082636;27;21601;-65
2023/01/26 02:43:32;;;;;;;25.10;11.70;;;0.30;99.90;;;;;;5003845;27;20214;-64
2023/01/26 02:45:58;;;;;;;25.53;12.57;;;0.30;99.90;;;;;;5062396;27;20331;-64
2023/01/26 02:51:10;;;;;;;25.53;11.17;;;0.20;99.90;;;;;;5072238;27;20223;-64
2023/01/26 02:53:37;;;;;;;26.23;11.63;;;0.40;99.90;;;;;;5075263;27;24714;-64
2023/01/26 02:56:03;;;;;;;28.33;12.40;;;0.30;99.90;;;;;;5079834;27;20206;-64
2023/01/26 02:58:30;;;;;;;25.97;11.27;;;0.30;99.90;;;;;;5036759;27;20208;-65
2023/01/26 03:00:58;;;;;;;27.30;11.83;;;0.40;99.90;;;;;;5046382;27;20297;-65
2023/01/26 03:03:40;;;;;;;24.17;11.03;;;0.30;99.90;;;;;;5062324;28;20220;-64
2023/01/26 03:06:08;;;;;;;27.20;11.30;;;0.30;99.90;;;;;;5058245;27;20207;-65
2023/01/26 03:08:34;;;;;;;25.67;11.70;;;0.30;99.90;;;;;;5066927;27;20200;-65
2023/01/26 03:11:01;;;;;;;25.80;11.70;;;0.40;99.90;;;;;;5076571;28;20199;-64
2023/01/26 03:13:28;;;;;;;22.30;10.83;;;0.40;99.90;;;;;;5067051;28;20196;-65
2023/01/26 03:15:55;;;;;;;23.20;10.73;;;0.40;99.90;;;;;;5048474;28;20212;-64
2023/01/26 03:29:26;;;;;;;23.07;11.07;;;0.40;99.90;;;;;;5068932;28;20860;-65
2023/01/26 03:31:53;;;;;;;25.90;11.43;;;0.40;99.90;;;;;;5041323;28;20203;-65
2023/01/26 03:34:21;;;;;;;20.57;10.77;;;0.40;99.90;;;;;;5067220;28;20235;-64
2023/01/26 03:36:49;;;;;;;24.00;11.43;;;0.50;99.90;;;;;;5060630;28;20885;-64
2023/01/26 03:58:24;;;;;;;19.67;10.37;;;0.50;99.90;;;;;;5057389;27;20210;-64
2023/01/26 04:00:50;;;;;;;21.90;11.23;;;0.50;99.90;;;;;;5049129;27;20210;-65
2023/01/26 04:08:47;;;;;;;22.37;10.87;;;0.50;99.90;;;;;;5060837;27;20294;-64
2023/01/26 04:11:14;;;;;;;19.93;10.60;;;0.60;99.90;;;;;;5081413;27;20202;-65
2023/01/26 04:21:55;;;;;;;20.27;9.80;;;0.50;99.90;;;;;;5078270;27;20220;-65
2023/01/26 04:24:23;;;;;;;16.80;8.33;;;0.50;99.90;;;;;;5069499;27;20203;-65
2023/01/26 04:26:50;;;;;;;22.37;9.70;;;0.50;99.90;;;;;;5074466;27;20674;-65
2023/01/26 04:29:17;;;;;;;23.67;9.80;;;0.60;99.90;;;;;;5083933;27;20202;-65
2023/01/26 04:31:44;;;;;;;20.70;10.10;;;0.50;99.90;;;;;;5032055;27;20209;-65
2023/01/26 04:34:12;;;;;;;23.20;9.70;;;0.60;99.90;;;;;;5081100;27;20228;-65
2023/01/26 04:36:39;;;;;;;17.90;8.27;;;0.70;99.90;;;;;;5070844;27;21240;-65
2023/01/26 04:39:08;;;;;;;20.80;8.90;;;0.60;99.90;;;;;;5062716;27;20223;-65
2023/01/26 04:41:34;;;;;;;22.83;9.27;;;0.60;99.90;;;;;;5078281;27;20196;-64
2023/01/26 04:44:01;;;;;;;16.93;8.40;;;0.60;99.90;;;;;;5067825;27;20220;-65
2023/01/26 04:46:28;;;;;;;15.20;7.57;;;0.60;99.90;;;;;;5041965;27;20213;-64
2023/01/26 04:48:55;;;;;;;15.00;8.10;;;0.70;99.90;;;;;;5081894;27;20222;-65
2023/01/26 04:51:22;;;;;;;22.90;8.43;;;0.70;99.90;;;;;;5070572;27;20204;-66
2023/01/26 04:53:50;;;;;;;16.23;7.60;;;0.60;99.90;;;;;;5069150;27;20204;-65
2023/01/26 04:56:22;;;;;;;17.73;7.90;;;0.70;99.90;;;;;;5075959;27;20911;-65
2023/01/26 04:58:49;;;;;;;16.70;7.70;;;0.70;99.90;;;;;;5072607;27;20887;-65
2023/01/26 05:01:16;;;;;;;16.00;7.23;;;0.70;99.90;;;;;;5027468;27;20222;-65
2023/01/26 05:03:43;;;;;;;12.37;6.70;;;0.70;99.90;;;;;;5039915;22;20237;-65
2023/01/26 05:06:10;;;;;;;12.40;6.17;;;0.70;99.90;;;;;;5009666;28;20225;-65
2023/01/26 05:08:38;;;;;;;14.60;7.20;;;0.60;99.90;;;;;;5035555;28;20221;-65
2023/01/26 05:11:05;;;;;;;14.37;7.17;;;0.60;99.90;;;;;;5035032;28;20234;-65
2023/01/26 05:13:34;;;;;;;13.83;6.60;;;0.70;99.90;;;;;;5057151;28;20749;-65
2023/01/26 05:16:01;;;;;;;15.13;6.90;;;0.60;99.90;;;;;;5050179;28;20236;-64
2023/01/26 05:18:28;;;;;;;13.97;7.23;;;0.70;99.90;;;;;;5025387;28;20804;-65
2023/01/26 05:20:55;;;;;;;11.30;7.27;;;0.70;99.90;;;;;;5054074;28;20192;-65
2023/01/26 05:23:22;;;;;;;13.10;6.60;;;0.70;99.90;;;;;;5040668;28;20208;-65
2023/01/26 05:25:49;;;;;;;17.73;7.10;;;0.70;99.90;;;;;;5038025;28;20209;-65
2023/01/26 05:28:15;;;;;;;13.87;7.33;;;0.70;99.90;;;;;;5055625;28;20204;-65
2023/01/26 05:30:43;;;;;;;13.80;6.77;;;0.70;99.90;;;;;;5043438;28;20284;-65
2023/01/26 05:33:11;;;;;;;15.27;6.57;;;0.70;99.90;;;;;;5030416;28;20201;-65
2023/01/26 05:35:38;;;;;;;13.80;6.73;;;0.70;99.90;;;;;;5044652;28;20243;-65
2023/01/26 05:38:04;;;;;;;12.47;7.07;;;0.80;99.90;;;;;;5036856;28;20220;-65
2023/01/26 05:40:31;;;;;;;14.80;6.50;;;0.80;99.90;;;;;;5036793;28;20236;-65
2023/01/26 05:42:58;;;;;;;11.60;6.67;;;0.70;99.90;;;;;;5048807;28;20220;-65
2023/01/26 05:45:25;;;;;;;12.50;6.23;;;0.70;99.90;;;;;;5035590;28;20221;-65
2023/01/26 05:47:53;;;;;;;16.60;7.13;;;0.80;99.90;;;;;;4985389;28;20229;-65
2023/01/26 05:50:20;;;;;;;11.47;5.77;;;0.80;99.90;;;;;;5052596;28;20197;-67
2023/01/26 05:52:47;;;;;;;12.17;6.60;;;0.70;99.90;;;;;;4996135;28;20216;-65
2023/01/26 05:55:14;;;;;;;13.03;6.80;;;0.80;99.90;;;;;;5023535;28;20971;-65
2023/01/26 05:57:41;;;;;;;12.80;5.47;;;0.80;99.90;;;;;;5011988;28;20222;-65
2023/01/26 06:00:10;;;;;;;10.53;5.67;;;0.80;99.90;;;;;;5036152;28;20229;-65
2023/01/26 06:02:37;;;;;;;14.73;6.63;;;0.80;99.90;;;;;;5015214;27;20229;-66
2023/01/26 06:05:07;;;;;;;13.17;6.33;;;0.70;99.90;;;;;;5057716;27;20313;-65
2023/01/26 06:07:34;;;;;;;11.30;6.17;;;0.70;99.90;;;;;;5070694;27;20878;-65
2023/01/26 06:10:00;;;;;;;15.40;6.40;;;0.80;99.90;;;;;;5047185;27;20227;-65
2023/01/26 06:12:30;;;;;;;15.67;6.77;;;0.80;99.90;;;;;;5052171;27;20228;-65
2023/01/26 06:14:57;;;;;;;11.97;5.97;;;0.80;99.90;;;;;;5072841;27;20260;-65
2023/01/26 06:17:24;;;;;;;13.37;6.20;;;0.90;99.90;;;;;;5048126;27;20245;-65
2023/01/26 06:19:50;;;;;;;16.07;6.97;;;1.00;99.90;;;;;;5039164;27;20220;-65
2023/01/26 06:22:19;;;;;;;12.00;6.40;;;1.20;99.90;;;;;;5081554;27;20213;-65
2023/01/26 06:24:46;;;;;;;15.50;7.37;;;1.10;99.90;;;;;;5065161;27;20256;-65
2023/01/26 06:27:14;;;;;;;12.53;6.77;;;1.10;99.90;;;;;;5064133;27;20449;-66
2023/01/26 06:29:41;;;;;;;16.00;7.03;;;1.10;99.90;;;;;;5084867;27;20916;-66
2023/01/26 06:32:09;;;;;;;13.57;6.63;;;1.10;99.90;;;;;;5071439;27;20194;-66
2023/01/26 06:34:36;;;;;;;12.83;6.30;;;2.20;99.90;;;;;;5049041;27;20706;-66
2023/01/26 06:37:04;;;;;;;13.37;6.30;;;1.10;99.90;;;;;;5077688;27;20209;-66
2023/01/26 06:39:32;;;;;;;16.40;6.70;;;1.00;99.90;;;;;;5069048;27;20208;-66
2023/01/26 06:41:59;;;;;;;17.17;6.83;;;1.00;99.90;;;;;;5081791;27;20201;-66
2023/01/26 06:44:25;;;;;;;17.33;8.00;;;1.00;99.90;;;;;;5072521;27;20198;-66
2023/01/26 06:46:52;;;;;;;16.27;7.37;;;1.00;99.90;;;;;;5072654;27;20208;-65
2023/01/26 06:49:19;;;;;;;13.43;7.30;;;0.90;99.90;;;;;;5075761;27;20770;-65
2023/01/26 06:51:54;;;;;;;17.00;7.00;;;0.90;99.90;;;;;;5047717;27;20914;-66
2023/01/26 06:54:20;;;;;;;17.73;7.20;;;1.00;99.90;;;;;;5070371;28;20677;-66
2023/01/26 06:56:49;;;;;;;17.77;7.77;;;1.00;99.90;;;;;;5065215;27;20219;-66
2023/01/26 06:59:15;;;;;;;14.47;7.27;;;0.90;99.90;;;;;;5053213;28;20208;-66
2023/01/26 07:01:47;;;;;;;15.17;7.07;;;0.90;99.90;;;;;;5061231;27;20206;-65
2023/01/26 07:04:14;;;;;;;17.40;7.47;;;0.90;99.90;;;;;;5072993;27;20909;-66
2023/01/26 07:06:42;;;;;;;14.13;7.03;;;0.90;99.90;;;;;;5030417;28;20216;-66
2023/01/26 07:09:09;;;;;;;18.67;7.27;;;0.90;99.90;;;;;;5083912;27;20209;-66
2023/01/26 07:11:36;;;;;;;14.13;7.33;;;1.00;99.90;;;;;;5086604;27;20202;-66
2023/01/26 07:14:04;;;;;;;16.03;8.03;;;1.00;99.90;;;;;;5076575;27;20200;-66
2023/01/26 07:16:31;;;;;;;16.97;7.47;;;0.60;99.90;;;;;;5059062;27;20224;-66
2023/01/26 07:18:58;;;;;;;20.43;8.20;;;1.00;99.90;;;;;;5083575;28;20208;-66
2023/01/26 07:21:25;;;;;;;18.53;7.30;;;1.00;99.90;;;;;;5054527;28;20206;-66
2023/01/26 07:23:52;;;;;;;15.17;7.17;;;1.00;99.90;;;;;;5082219;28;20202;-66
2023/01/26 07:26:21;;;;;;;16.63;6.77;;;1.00;99.90;;;;;;5075179;27;20220;-68
2023/01/26 07:28:48;;;;;;;16.27;7.67;;;0.90;99.90;;;;;;5069366;28;20228;-66
2023/01/26 07:31:16;;;;;;;20.50;7.77;;;1.00;99.90;;;;;;5059766;27;20711;-68
2023/01/26 07:33:43;;;;;;;17.73;7.00;;;1.00;99.90;;;;;;5065416;28;20205;-66
2023/01/26 07:36:10;;;;;;;14.67;7.23;;;1.00;99.90;;;;;;5053145;28;20232;-66
2023/01/26 07:38:37;;;;;;;16.23;6.97;;;1.00;99.90;;;;;;5078810;28;20201;-66
2023/01/26 07:41:07;;;;;;;15.87;7.40;;;0.90;99.90;;;;;;5077015;28;20198;-66
2023/01/26 07:43:35;;;;;;;18.33;7.43;;;0.90;99.90;;;;;;5069437;28;21419;-66
2023/01/26 07:46:01;;;;;;;17.33;8.23;;;1.00;99.90;;;;;;5060931;28;20206;-67
2023/01/26 07:48:30;;;;;;;18.03;8.27;;;1.00;99.90;;;;;;5076557;28;20202;-66
2023/01/26 07:51:01;;;;;;;15.43;7.43;;;1.10;99.90;;;;;;5071347;28;20201;-67
2023/01/26 07:53:29;;;;;;;12.37;6.90;;;1.00;99.90;;;;;;5060711;28;20343;-67
2023/01/26 07:56:05;;;;;;;15.00;6.93;;;1.00;99.90;;;;;;5084865;28;20293;-66
2023/01/26 07:58:34;;;;;;;19.83;8.50;;;1.10;99.90;;;;;;5068117;28;23796;-66
2023/01/26 08:01:06;;;;;;;20.50;8.37;;;1.10;99.90;;;;;;5080826;28;20277;-67
2023/01/26 08:03:34;;;;;;;27.53;8.10;;;1.10;99.90;;;;;;5069068;28;20229;-66
2023/01/26 08:06:01;;;;;;;17.33;7.40;;;1.10;99.90;;;;;;5077695;28;20229;-65
2023/01/26 08:08:28;;;;;;;25.67;8.03;;;1.10;99.90;;;;;;5044521;28;20309;-66
2023/01/26 08:10:57;;;;;;;24.17;8.20;;;1.10;99.90;;;;;;5083405;28;20218;-66
2023/01/26 08:13:23;;;;;;;28.17;8.70;;;1.10;99.90;;;;;;5069736;28;20230;-66
2023/01/26 08:15:50;;;;;;;20.23;7.97;;;1.10;99.90;;;;;;5059854;28;20236;-66
2023/01/26 08:18:17;;;;;;;19.27;7.80;;;1.20;99.90;;;;;;5067740;28;20258;-66
2023/01/26 08:20:51;;;;;;;22.20;7.80;;;1.20;99.90;;;;;;5065449;28;20288;-66
2023/01/26 08:23:18;;;;;;;28.47;8.90;;;1.20;99.90;;;;;;5033946;28;20211;-67
2023/01/26 08:25:46;;;;;;;23.13;9.00;;;1.10;99.90;;;;;;5078352;28;20202;-66
2023/01/26 08:28:13;;;;;;;22.67;10.17;;;1.20;99.90;;;;;;5060205;28;20204;-66
2023/01/26 08:30:40;;;;;;;15.10;8.03;;;1.10;99.90;;;;;;5069029;28;20226;-66
2023/01/26 08:33:07;;;;;;;22.83;8.03;;;1.20;99.90;;;;;;5066005;28;20982;-66
2023/01/26 08:35:34;;;;;;;16.57;8.03;;;1.20;99.90;;;;;;5062947;28;20263;-66
2023/01/26 08:38:02;;;;;;;25.60;8.50;;;1.20;99.90;;;;;;5083314;28;20205;-65
2023/01/26 08:40:29;;;;;;;24.53;8.67;;;1.20;99.90;;;;;;5049691;27;20683;-65
2023/01/26 08:42:59;;;;;;;25.27;9.37;;;1.30;99.90;;;;;;5060824;27;20815;-66
2023/01/26 08:45:25;;;;;;;24.80;8.87;;;1.20;99.90;;;;;;5076378;27;20210;-65
2023/01/26 08:47:52;;;;;;;20.10;8.10;;;1.10;99.90;;;;;;5067047;27;20252;-66
2023/01/26 08:50:19;;;;;;;40.67;9.23;;;1.40;99.90;;;;;;5061949;27;20214;-65
2023/01/26 08:52:46;;;;;;;21.20;8.63;;;1.20;99.90;;;;;;5071637;27;20196;-65
2023/01/26 08:55:14;;;;;;;29.47;7.83;;;1.30;99.90;;;;;;5045866;27;20207;-66
2023/01/26 08:57:41;;;;;;;29.93;8.37;;;1.20;99.90;;;;;;5065340;27;21211;-66
2023/01/26 09:00:09;;;;;;;23.77;7.53;;;1.30;99.90;;;;;;5068820;27;20206;-65
2023/01/26 09:02:36;;;;;;;21.47;7.73;;;1.20;99.90;;;;;;5067014;27;20315;-65
2023/01/26 09:05:02;;;;;;;18.93;7.70;;;1.30;99.90;;;;;;5064307;27;20206;-66
2023/01/26 09:07:29;;;;;;;23.20;8.33;;;1.30;99.90;;;;;;5051707;27;21073;-65
2023/01/26 09:09:56;;;;;;;29.83;8.60;;;1.30;99.90;;;;;;5084220;27;20222;-65
2023/01/26 09:12:24;;;;;;;20.83;7.93;;;1.30;99.90;;;;;;5047454;27;20514;-66
2023/01/26 09:14:51;;;;;;;19.53;8.13;;;1.30;99.90;;;;;;5074196;27;20202;-66
2023/01/26 09:17:18;;;;;;;36.50;12.07;;;1.30;99.90;;;;;;5069815;27;20231;-66
2023/01/26 09:19:44;;;;;;;47.47;12.87;;;1.30;99.90;;;;;;5057431;27;20496;-65
2023/01/26 09:22:11;;;;;;;37.83;9.90;;;1.40;99.90;;;;;;5057671;27;20217;-65
2023/01/26 09:24:38;;;;;;;33.07;9.60;;;1.30;99.90;;;;;;5070342;27;20201;-66
2023/01/26 09:27:05;;;;;;;29.23;8.27;;;1.40;99.90;;;;;;5044284;27;20670;-66
2023/01/26 09:29:33;;;;;;;33.73;8.80;;;1.40;99.90;;;;;;5053487;27;20719;-67
2023/01/26 09:31:59;;;;;;;19.23;7.63;;;1.40;99.90;;;;;;5072877;27;20450;-67
2023/01/26 09:34:27;;;;;;;25.53;9.63;;;1.50;99.90;;;;;;5052950;27;20231;-66
2023/01/26 09:36:54;;;;;;;36.33;9.93;;;1.50;99.90;;;;;;5072778;27;20307;-67
2023/01/26 09:39:21;;;;;;;24.90;8.77;;;1.50;99.90;;;;;;5071952;27;20198;-65
2023/01/26 09:41:58;;;;;;;24.17;7.13;;;1.60;99.90;;;;;;5036884;27;20747;-66
2023/01/26 09:44:26;;;;;;;30.57;11.27;;;1.50;99.90;;;;;;5069306;27;20256;-65
2023/01/26 09:47:06;;;;;;;22.83;8.97;;;1.50;99.90;;;;;;5061190;27;20225;-65
2023/01/26 09:49:44;;;;;;;39.93;11.57;;;1.60;99.90;;;;;;5086086;27;20641;-65
2023/01/26 09:52:17;;;;;;;22.33;7.87;;;1.60;99.90;;;;;;5065076;27;20234;-65
2023/01/26 09:54:49;;;;;;;30.43;9.07;;;1.60;99.90;;;;;;5070577;27;20746;-65
2023/01/26 09:57:18;;;;;;;47.00;9.07;;;1.60;99.90;;;;;;5051533;27;21365;-66
2023/01/26 09:59:52;;;;;;;30.17;8.73;;;1.60;99.90;;;;;;5085851;27;20594;-65
2023/01/26 10:02:33;;;;;;;32.33;9.30;;;1.70;99.90;;;;;;5068537;27;21266;-65
2023/01/26 10:05:07;;;;;;;25.30;8.93;;;1.70;99.90;;;;;;5056588;27;20237;-65
2023/01/26 10:07:34;;;;;;;41.43;9.50;;;1.80;99.90;;;;;;5080630;27;20202;-66
2023/01/26 10:10:03;;;;;;;26.17;8.43;;;1.80;99.90;;;;;;5070158;27;20223;-65
2023/01/26 10:12:34;;;;;;;34.87;9.00;;;1.90;99.90;;;;;;5038424;27;20218;-66
2023/01/26 10:15:07;;;;;;;31.10;8.00;;;1.80;99.90;;;;;;5080792;27;20635;-66
2023/01/26 10:17:38;;;;;;;66.40;9.23;;;1.80;99.90;;;;;;5074691;27;20238;-65
2023/01/26 10:20:17;;;;;;;33.30;7.83;;;1.90;99.90;;;;;;5042705;27;20403;-66
2023/01/26 10:22:46;;;;;;;48.00;8.13;;;2.00;99.90;;;;;;5060569;27;20199;-66
2023/01/26 10:25:16;;;;;;;44.43;8.07;;;2.00;99.90;;;;;;5071000;27;20257;-66
2023/01/26 10:27:44;;;;;;;32.10;8.17;;;2.10;99.90;;;;;;5062390;27;20250;-66
2023/01/26 10:30:13;;;;;;;42.40;7.97;;;2.10;99.90;;;;;;5065167;27;20247;-66
2023/01/26 10:32:43;;;;;;;45.30;7.90;;;2.10;99.90;;;;;;5054754;28;20206;-65
2023/01/26 10:35:17;;;;;;;35.80;7.90;;;2.10;99.90;;;;;;5060577;27;20246;-66
2023/01/26 10:37:44;;;;;;;27.63;8.57;;;2.10;99.90;;;;;;5059081;27;20226;-66
2023/01/26 10:40:11;;;;;;;27.47;7.73;;;2.20;99.90;;;;;;5067065;27;20304;-65
2023/01/26 10:42:39;;;;;;;18.17;7.13;;;2.20;99.90;;;;;;5069305;27;20234;-65
2023/01/26 10:45:25;;;;;;;21.57;6.93;;;2.30;99.90;;;;;;5044521;27;20484;-66
2023/01/26 10:48:18;;;;;;;21.40;7.00;;;2.40;99.90;;;;;;5067339;27;20210;-66
2023/01/26 10:50:46;;;;;;;27.93;8.63;;;2.30;99.90;;;;;;5065983;27;20210;-66
2023/01/26 10:53:17;;;;;;;28.73;7.17;;;2.30;99.90;;;;;;5044171;27;20219;-66
2023/01/26 10:55:57;;;;;;;39.00;8.47;;;2.40;99.90;;;;;;5060950;27;20221;-66
2023/01/26 10:58:48;;;;;;;25.87;7.70;;;2.40;99.90;;;;;;5069292;27;20210;-66
2023/01/26 11:01:21;;;;;;;31.07;7.47;;;2.40;99.90;;;;;;5045261;27;20211;-66
2023/01/26 11:04:06;;;;;;;26.40;8.13;;;2.40;99.90;;;;;;5070260;27;20246;-66
2023/01/26 11:06:34;;;;;;;27.67;6.60;;;2.50;99.90;;;;;;5054429;28;20236;-66
2023/01/26 11:09:16;;;;;;;19.60;7.03;;;2.50;99.90;;;;;;5049594;28;20329;-67
2023/01/26 11:11:55;;;;;;;44.30;8.03;;;2.50;99.90;;;;;;5057993;27;20715;-66
2023/01/26 11:14:22;;;;;;;27.90;6.93;;;2.50;99.90;;;;;;5055617;27;20219;-66
2023/01/26 11:16:54;;;;;;;40.33;7.10;;;2.50;99.90;;;;;;5035358;27;20233;-66
2023/01/26 11:19:40;;;;;;;39.90;6.70;;;2.60;99.90;;;;;;5083741;28;20230;-66
2023/01/26 11:22:10;;;;;;;30.27;6.07;;;2.70;99.90;;;;;;5042557;27;20279;-66
2023/01/26 11:24:43;;;;;;;19.77;6.13;;;2.80;99.90;;;;;;5076297;28;20226;-66
2023/01/26 11:27:28;;;;;;;16.10;6.93;;;3.00;99.90;;;;;;5058995;28;20228;-67
2023/01/26 11:30:27;;;;;;;27.23;8.50;;;3.10;99.90;;;;;;5082028;28;20222;-67
2023/01/26 11:33:00;;;;;;;20.40;7.93;;;3.20;99.90;;;;;;5089686;28;20309;-67
2023/01/26 11:35:40;;;;;;;24.13;8.17;;;3.40;99.90;;;;;;5069855;28;20215;-67
2023/01/26 11:38:22;;;;;;;21.50;7.47;;;3.60;99.90;;;;;;5047233;28;20226;-67
2023/01/26 11:40:57;;;;;;;23.87;9.00;;;3.70;99.90;;;;;;5070138;28;20206;-67
2023/01/26 11:43:54;;;;;;;31.63;7.47;;;3.80;99.90;;;;;;5081861;28;20670;-66
2023/01/26 11:46:43;;;;;;;18.87;7.87;;;4.00;99.90;;;;;;5046847;28;20206;-66
2023/01/26 11:49:22;;;;;;;24.03;6.63;;;4.10;99.90;;;;;;5080474;28;20216;-67
2023/01/26 11:52:03;;;;;;;28.83;5.80;;;4.30;99.90;;;;;;5061881;28;20206;-67
2023/01/26 11:54:46;;;;;;;26.53;5.03;;;4.50;99.90;;;;;;5073328;28;20204;-67
2023/01/26 11:57:26;;;;;;;30.67;4.90;;;4.80;99.90;;;;;;5052884;28;20235;-67
2023/01/26 12:00:00;;;;;;;27.77;4.60;;;4.90;99.90;;;;;;5048344;28;20230;-67
2023/01/26 12:02:31;;;;;;;18.60;4.77;;;5.00;99.90;;;;;;5032954;28;20239;-66
2023/01/26 12:05:04;;;;;;;18.50;4.10;;;5.10;99.90;;;;;;5064257;28;20563;-67
2023/01/26 12:07:50;;;;;;;13.97;3.93;;;5.20;99.90;;;;;;5055962;28;21704;-67
2023/01/26 12:10:19;;;;;;;24.63;3.33;;;5.20;99.90;;;;;;5070214;28;20203;-67
2023/01/26 12:12:51;;;;;;;18.67;4.00;;;5.20;99.90;;;;;;5064533;28;20780;-67
2023/01/26 12:15:22;;;;;;;29.37;4.00;;;5.30;99.90;;;;;;5077764;28;20200;-67
2023/01/26 12:17:59;;;;;;;13.97;3.33;;;5.40;99.90;;;;;;5041873;27;20238;-67
2023/01/26 12:20:35;;;;;;;12.03;3.17;;;5.40;99.90;;;;;;5056649;27;21005;-67
2023/01/26 12:23:10;;;;;;;31.23;3.80;;;5.50;99.90;;;;;;5059017;27;21035;-67
2023/01/26 12:25:39;;;;;;;26.73;4.00;;;5.60;99.90;;;;;;5080522;27;20203;-67
2023/01/26 12:28:18;;;;;;;17.00;3.03;;;5.60;99.90;;;;;;5068286;27;20566;-67
2023/01/26 12:30:55;;;;;;;24.67;3.77;;;5.70;99.90;;;;;;5090901;27;20199;-68
2023/01/26 12:33:22;;;;;;;14.97;2.90;;;5.70;99.90;;;;;;5027431;27;20230;-68
2023/01/26 12:36:03;;;;;;;10.33;2.63;;;5.90;99.90;;;;;;5053701;27;20218;-67
2023/01/26 12:38:43;;;;;;;20.43;2.03;;;6.00;99.90;;;;;;5051099;27;20266;-68
2023/01/26 12:41:17;;;;;;;14.80;2.77;;;6.20;99.90;;;;;;5056206;27;20228;-67
2023/01/26 12:43:56;;;;;;;14.70;2.00;;;6.10;99.90;;;;;;5065695;27;20213;-68
2023/01/26 12:46:28;;;;;;;14.93;2.23;;;6.10;99.90;;;;;;5084643;27;20204;-67
2023/01/26 12:49:00;;;;;;;26.83;2.47;;;6.10;99.90;;;;;;5029513;27;21908;-68
2023/01/26 12:51:31;;;;;;;19.87;2.43;;;6.10;99.90;;;;;;5069625;27;20207;-68
2023/01/26 12:54:04;;;;;;;23.67;3.00;;;6.10;99.90;;;;;;5057998;27;20207;-68
2023/01/26 12:56:34;;;;;;;17.80;2.43;;;6.10;99.90;;;;;;5056635;27;20228;-67
2023/01/26 12:59:15;;;;;;;16.70;2.33;;;6.30;99.90;;;;;;5082224;27;20227;-67
2023/01/26 13:01:43;;;;;;;14.20;2.20;;;6.10;99.90;;;;;;5079420;27;20260;-68
2023/01/26 13:04:12;;;;;;;15.43;2.60;;;6.10;99.90;;;;;;5037046;27;20231;-68
2023/01/26 13:06:39;;;;;;;23.57;2.87;;;6.10;99.90;;;;;;5064630;28;21046;-67
2023/01/26 13:09:23;;;;;;;12.40;3.03;;;6.10;99.90;;;;;;5059527;27;20659;-68
2023/01/26 13:11:52;;;;;;;19.80;3.07;;;6.10;99.90;;;;;;5067849;27;20214;-68
2023/01/26 13:14:34;;;;;;;16.60;2.50;;;6.10;99.90;;;;;;5066941;27;20707;-67
2023/01/26 13:17:41;;;;;;;20.63;2.40;;;6.10;99.90;;;;;;5071279;23;20716;-68
2023/01/26 13:20:40;;;;;;;20.57;2.67;;;6.20;99.90;;;;;;4979610;28;20252;-67
2023/01/26 13:23:38;;;;;;;19.43;2.80;;;6.10;99.90;;;;;;4994402;28;20217;-67
2023/01/26 13:26:24;;;;;;;13.70;2.30;;;6.10;99.90;;;;;;5013740;28;20225;-66
2023/01/26 13:28:53;;;;;;;6.30;1.73;;;6.20;99.90;;;;;;4992606;28;20314;-67
2023/01/26 13:31:31;;;;;;;12.73;1.80;;;6.20;99.90;;;;;;4999745;28;20226;-67
2023/01/26 13:34:01;;;;;;;19.53;2.73;;;6.20;99.90;;;;;;5011494;28;20280;-67
2023/01/26 13:36:34;;;;;;;10.90;2.57;;;6.20;99.90;;;;;;4975724;28;20541;-67
2023/01/26 13:39:05;;;;;;;21.97;2.77;;;6.10;99.90;;;;;;4985115;28;22745;-66
2023/01/26 13:41:33;;;;;;;9.40;1.70;;;6.10;99.90;;;;;;4996464;28;23776;-67
2023/01/26 13:44:08;;;;;;;11.47;1.87;;;6.10;99.90;;;;;;4995428;28;20579;-68
2023/01/26 13:46:39;;;;;;;9.63;2.10;;;6.10;99.90;;;;;;5001795;28;20213;-67